Time;durP1;ratioP1;P1;durP2;ratioP2;P2;SDS_P1;SDS_P2;PMS_P1;PMS_P2;Temp;Humidity;BMP_temperature;BMP_pressure;BME280_temperature;BME280_humidity;BME280_pressure;Samples;Min_cycle;Max_cycle;Signal;HPM_P1;HPM_P2
2023/07/01 00:01:23;;;;;;;10.47;4.80;;;18.50;30.70;;;;;;4981579;28;20403;-77
2023/07/01 00:03:48;;;;;;;14.77;5.22;;;18.50;30.90;;;;;;4981877;28;20433;-78
2023/07/01 00:06:14;;;;;;;13.40;5.10;;;18.50;31.00;;;;;;4985113;28;20396;-78
2023/07/01 00:08:40;;;;;;;10.57;4.78;;;18.50;30.90;;;;;;4987751;28;20412;-78
2023/07/01 00:11:07;;;;;;;7.40;4.53;;;18.50;31.10;;;;;;4987447;28;20762;-78
2023/07/01 00:13:33;;;;;;;7.20;4.97;;;18.50;31.20;;;;;;4981033;28;20412;-79
2023/07/01 00:15:58;;;;;;;7.30;4.90;;;18.50;31.10;;;;;;4980731;28;20428;-78
2023/07/01 00:18:24;;;;;;;8.32;5.22;;;18.50;31.90;;;;;;4981991;28;20768;-79
2023/07/01 00:20:50;;;;;;;9.57;5.30;;;18.50;30.70;;;;;;4983030;28;20446;-78
2023/07/01 00:23:16;;;;;;;7.97;5.23;;;18.60;30.50;;;;;;4989900;28;20447;-79
2023/07/01 00:25:41;;;;;;;8.67;4.60;;;18.60;30.50;;;;;;4994221;28;20459;-77
2023/07/01 00:28:07;;;;;;;5.97;4.47;;;18.70;30.30;;;;;;4992439;28;20412;-78
2023/07/01 00:30:32;;;;;;;9.15;4.93;;;18.70;30.40;;;;;;4992267;28;20459;-77
2023/07/01 00:33:00;;;;;;;5.20;4.00;;;18.60;30.00;;;;;;4987668;28;20396;-78
2023/07/01 00:35:25;;;;;;;8.60;3.92;;;18.60;29.20;;;;;;4992820;28;20392;-77
2023/07/01 00:37:51;;;;;;;6.80;4.40;;;18.70;29.20;;;;;;4986946;28;20384;-78
2023/07/01 00:40:17;;;;;;;6.70;4.10;;;18.70;29.30;;;;;;4989295;28;20395;-77
2023/07/01 00:42:44;;;;;;;8.52;3.80;;;18.70;29.00;;;;;;4990009;28;20403;-78
2023/07/01 00:45:10;;;;;;;5.50;3.60;;;18.70;29.10;;;;;;4988797;28;20384;-78
2023/07/01 00:47:37;;;;;;;8.13;3.90;;;18.70;29.00;;;;;;4988155;28;20439;-78
2023/07/01 00:50:04;;;;;;;7.45;4.00;;;18.80;28.80;;;;;;4987226;28;20384;-78
2023/07/01 00:52:30;;;;;;;4.60;3.20;;;18.70;28.90;;;;;;4983012;28;20396;-79
2023/07/01 00:54:56;;;;;;;6.35;3.95;;;18.70;29.10;;;;;;4984742;28;20768;-78
2023/07/01 00:57:21;;;;;;;5.10;3.60;;;18.80;28.80;;;;;;4984270;28;20396;-78
2023/07/01 00:59:47;;;;;;;6.30;3.67;;;18.80;28.80;;;;;;4984088;28;20526;-80
2023/07/01 01:02:29;;;;;;;5.38;3.63;;;18.80;28.90;;;;;;4982862;28;20760;-80
2023/07/01 01:05:10;;;;;;;5.55;3.47;;;18.70;28.90;;;;;;4984970;28;20388;-76
2023/07/01 01:07:51;;;;;;;5.25;4.00;;;18.80;29.10;;;;;;4986746;28;20494;-78
2023/07/01 01:10:24;;;;;;;5.95;3.55;;;18.80;28.80;;;;;;4993926;28;20861;-77
2023/07/01 01:13:00;;;;;;;9.00;3.83;;;18.80;28.80;;;;;;4988129;28;20447;-77
2023/07/01 01:15:27;;;;;;;5.60;3.80;;;18.80;28.90;;;;;;4980066;28;20420;-76
2023/07/01 01:17:56;;;;;;;6.25;3.88;;;18.70;29.10;;;;;;4981684;28;20393;-78
2023/07/01 01:20:23;;;;;;;6.95;4.20;;;18.70;29.00;;;;;;4982435;28;20416;-77
2023/07/01 01:22:55;;;;;;;6.88;3.90;;;18.80;28.60;;;;;;4982980;28;20388;-77
2023/07/01 01:25:28;;;;;;;4.88;3.78;;;18.80;28.90;;;;;;4997627;28;20855;-76
2023/07/01 01:27:55;;;;;;;7.72;3.85;;;18.80;28.80;;;;;;4998910;28;20486;-76
2023/07/01 01:30:25;;;;;;;4.25;3.50;;;18.80;28.70;;;;;;4993088;28;20407;-77
2023/07/01 01:32:51;;;;;;;9.85;4.00;;;18.80;28.60;;;;;;4991380;28;20399;-77
2023/07/01 01:35:17;;;;;;;5.35;3.90;;;18.80;28.70;;;;;;4991038;28;20455;-78
2023/07/01 01:37:52;;;;;;;10.55;4.05;;;18.80;28.80;;;;;;4992250;28;20392;-79
2023/07/01 01:40:30;;;;;;;5.70;4.03;;;18.80;28.70;;;;;;4991249;28;20408;-78
2023/07/01 01:43:26;;;;;;;6.32;3.80;;;18.90;28.50;;;;;;4987359;28;20423;-77
2023/07/01 01:45:53;;;;;;;6.28;3.40;;;18.90;28.30;;;;;;4989814;28;20396;-78
2023/07/01 01:48:19;;;;;;;7.30;3.87;;;18.90;28.20;;;;;;4993477;28;20430;-79
2023/07/01 01:50:50;;;;;;;8.10;3.90;;;18.90;28.50;;;;;;4984861;28;20424;-78
2023/07/01 01:53:17;;;;;;;5.07;3.50;;;18.80;28.60;;;;;;4984843;28;20471;-79
2023/07/01 01:55:43;;;;;;;8.30;3.80;;;18.90;28.50;;;;;;4989586;28;20404;-78
2023/07/01 01:58:09;;;;;;;8.43;4.10;;;18.90;28.20;;;;;;4989414;28;20396;-77
2023/07/01 02:00:35;;;;;;;7.20;3.60;;;18.90;28.20;;;;;;4983737;28;20896;-77
2023/07/01 02:03:01;;;;;;;8.23;3.90;;;18.90;28.20;;;;;;4977798;28;20428;-78
2023/07/01 02:05:31;;;;;;;9.90;3.80;;;18.90;28.10;;;;;;4979599;28;20466;-77
2023/07/01 02:07:56;;;;;;;4.30;3.45;;;18.80;28.00;;;;;;4980511;28;20422;-77
2023/07/01 02:10:22;;;;;;;7.68;3.63;;;18.90;27.90;;;;;;4977615;28;20404;-76
2023/07/01 02:12:48;;;;;;;6.37;3.60;;;18.80;27.90;;;;;;4985060;28;20400;-77
2023/07/01 02:15:14;;;;;;;5.07;3.50;;;18.90;27.60;;;;;;4992692;28;20380;-76
2023/07/01 02:17:39;;;;;;;5.10;3.90;;;18.90;27.80;;;;;;4984915;28;20420;-78
2023/07/01 02:20:06;;;;;;;6.18;3.47;;;18.90;27.60;;;;;;4981275;28;20408;-76
2023/07/01 02:22:32;;;;;;;5.65;3.45;;;18.90;27.60;;;;;;4972875;28;20927;-73
2023/07/01 02:24:58;;;;;;;6.37;3.90;;;18.80;28.00;;;;;;4972111;28;20408;-73
2023/07/01 02:27:24;;;;;;;7.20;3.90;;;18.80;28.00;;;;;;4972686;28;20511;-73
2023/07/01 02:29:51;;;;;;;6.68;3.85;;;18.80;27.80;;;;;;4972389;28;20499;-75
2023/07/01 02:32:17;;;;;;;6.60;3.80;;;18.80;27.80;;;;;;4973196;28;20869;-73
2023/07/01 02:34:42;;;;;;;7.07;4.10;;;18.90;27.70;;;;;;4973411;28;20398;-73
2023/07/01 02:37:08;;;;;;;6.25;3.80;;;18.90;27.50;;;;;;4974908;28;20455;-74
2023/07/01 02:39:33;;;;;;;5.27;3.63;;;18.90;27.20;;;;;;4973913;28;20403;-74
2023/07/01 02:41:59;;;;;;;6.85;3.90;;;18.90;26.90;;;;;;4973035;28;20500;-74
2023/07/01 02:44:24;;;;;;;7.17;4.23;;;18.90;26.70;;;;;;4972985;28;20412;-74
2023/07/01 02:46:50;;;;;;;8.65;4.10;;;19.00;26.90;;;;;;4972757;28;20392;-74
2023/07/01 02:49:15;;;;;;;7.65;3.80;;;18.90;26.70;;;;;;4972829;28;20415;-74
2023/07/01 02:51:41;;;;;;;6.53;3.43;;;19.00;26.30;;;;;;4972837;28;20757;-73
2023/07/01 02:54:07;;;;;;;5.93;3.55;;;19.00;26.20;;;;;;4972312;28;20387;-73
2023/07/01 02:56:33;;;;;;;9.77;4.10;;;19.00;26.20;;;;;;4972419;28;20379;-72
2023/07/01 02:58:58;;;;;;;5.65;3.80;;;19.00;25.70;;;;;;4972397;28;20399;-74
2023/07/01 03:01:24;;;;;;;5.90;3.70;;;19.00;25.90;;;;;;4972117;28;20392;-74
2023/07/01 03:03:49;;;;;;;6.70;4.00;;;19.00;25.70;;;;;;4972901;28;20429;-75
2023/07/01 03:06:16;;;;;;;7.57;4.13;;;19.10;25.50;;;;;;4973233;28;20400;-73
2023/07/01 03:08:42;;;;;;;7.25;3.58;;;19.20;25.00;;;;;;4979317;28;20428;-74
2023/07/01 03:11:07;;;;;;;5.60;3.38;;;19.10;25.40;;;;;;4977593;28;20400;-73
2023/07/01 03:13:35;;;;;;;10.63;4.18;;;19.20;25.00;;;;;;4982220;28;20395;-73
2023/07/01 03:16:01;;;;;;;8.95;3.80;;;19.20;25.00;;;;;;4977568;28;20380;-75
2023/07/01 03:18:26;;;;;;;7.90;3.60;;;19.20;24.50;;;;;;4974834;28;20448;-74
2023/07/01 03:20:52;;;;;;;7.53;3.77;;;19.20;24.20;;;;;;4973188;28;20404;-74
2023/07/01 03:23:18;;;;;;;9.38;3.90;;;19.30;24.10;;;;;;4972131;28;20496;-72
2023/07/01 03:25:43;;;;;;;8.25;3.63;;;19.20;24.40;;;;;;4971747;28;20400;-72
2023/07/01 03:28:09;;;;;;;10.20;3.63;;;19.10;24.40;;;;;;4986457;28;20408;-72
2023/07/01 03:30:35;;;;;;;8.60;4.00;;;19.00;24.60;;;;;;4971757;28;20395;-72
2023/07/01 03:33:00;;;;;;;8.73;3.10;;;19.10;24.40;;;;;;4986264;28;20385;-71
2023/07/01 03:35:26;;;;;;;8.93;4.15;;;19.20;24.10;;;;;;4971296;28;20384;-71
2023/07/01 03:37:52;;;;;;;5.57;3.90;;;19.20;24.30;;;;;;4971219;28;20466;-72
2023/07/01 03:40:18;;;;;;;8.00;3.70;;;19.20;24.30;;;;;;4971097;28;20427;-73
2023/07/01 03:42:43;;;;;;;11.67;3.97;;;19.10;24.30;;;;;;4970982;28;20941;-71
2023/07/01 03:45:10;;;;;;;12.25;3.72;;;19.10;24.50;;;;;;4970898;28;20467;-71
2023/07/01 03:47:43;;;;;;;8.52;4.00;;;19.10;24.40;;;;;;4970822;28;20563;-72
2023/07/01 03:50:09;;;;;;;10.73;3.90;;;19.10;24.40;;;;;;4971001;28;20377;-72
2023/07/01 03:52:39;;;;;;;5.90;3.70;;;19.20;24.30;;;;;;4972402;28;20388;-72
2023/07/01 03:55:06;;;;;;;6.20;3.92;;;19.20;24.40;;;;;;4972643;28;20450;-72
2023/07/01 03:57:33;;;;;;;9.45;3.72;;;19.20;24.10;;;;;;4973125;28;20604;-72
2023/07/01 03:59:58;;;;;;;7.57;4.20;;;19.30;24.10;;;;;;4973331;28;20777;-72
2023/07/01 04:02:24;;;;;;;8.93;3.90;;;19.20;24.10;;;;;;4973112;28;20404;-75
2023/07/01 04:04:50;;;;;;;8.30;3.80;;;19.30;24.20;;;;;;4973184;28;20400;-71
2023/07/01 04:07:24;;;;;;;6.77;3.90;;;19.20;24.30;;;;;;4973671;28;20423;-72
2023/07/01 04:09:50;;;;;;;13.15;4.07;;;19.20;24.30;;;;;;4974073;28;20384;-72
2023/07/01 04:12:16;;;;;;;5.97;4.00;;;19.40;24.30;;;;;;4973066;28;20384;-72
2023/07/01 04:14:42;;;;;;;8.02;3.45;;;19.40;24.30;;;;;;4972623;28;20738;-71
2023/07/01 04:17:08;;;;;;;9.32;3.10;;;19.30;24.80;;;;;;4972711;28;20439;-71
2023/07/01 04:19:33;;;;;;;5.60;3.10;;;19.20;24.60;;;;;;4971804;28;20384;-70
2023/07/01 04:21:59;;;;;;;6.50;3.43;;;19.20;24.90;;;;;;4971223;28;20531;-72
2023/07/01 04:24:25;;;;;;;10.10;3.40;;;19.30;24.60;;;;;;4970942;28;20404;-72
2023/07/01 04:26:52;;;;;;;6.47;3.67;;;19.30;24.50;;;;;;4973357;28;20790;-71
2023/07/01 04:29:17;;;;;;;9.23;3.50;;;19.30;24.60;;;;;;4974559;28;20408;-72
2023/07/01 04:31:43;;;;;;;6.78;3.63;;;19.40;24.30;;;;;;4974631;28;20466;-73
2023/07/01 04:34:08;;;;;;;6.43;3.83;;;19.40;24.40;;;;;;4974713;28;20466;-71
2023/07/01 04:36:34;;;;;;;8.93;3.58;;;19.40;24.30;;;;;;4974847;28;20806;-70
2023/07/01 04:38:59;;;;;;;6.57;3.80;;;19.40;24.20;;;;;;4974738;28;20745;-72
2023/07/01 04:41:25;;;;;;;9.47;4.30;;;19.40;24.30;;;;;;4975332;28;20731;-71
2023/07/01 04:43:50;;;;;;;6.85;3.50;;;19.40;24.10;;;;;;4975930;28;20883;-72
2023/07/01 04:46:16;;;;;;;10.07;3.40;;;19.40;24.30;;;;;;4976587;28;20878;-73
2023/07/01 04:48:41;;;;;;;6.53;3.30;;;19.50;23.90;;;;;;4975499;28;20821;-72
2023/07/01 04:51:07;;;;;;;4.82;3.38;;;19.50;23.70;;;;;;4974774;28;20392;-71
2023/07/01 04:53:32;;;;;;;6.50;3.60;;;19.70;23.70;;;;;;4974105;28;20396;-72
2023/07/01 04:55:58;;;;;;;7.70;3.10;;;19.80;23.00;;;;;;4974095;28;20396;-71
2023/07/01 04:58:24;;;;;;;5.90;3.50;;;19.80;22.90;;;;;;4972429;28;20407;-72
2023/07/01 05:00:50;;;;;;;4.90;3.20;;;19.80;22.80;;;;;;4973798;28;20406;-71
2023/07/01 05:03:16;;;;;;;4.53;3.20;;;19.90;22.80;;;;;;4973600;28;20479;-71
2023/07/01 05:05:42;;;;;;;5.80;3.40;;;20.00;22.30;;;;;;4973872;28;20937;-71
2023/07/01 05:08:07;;;;;;;6.83;3.50;;;20.10;22.20;;;;;;4974151;28;20415;-71
2023/07/01 05:10:33;;;;;;;7.97;3.43;;;20.20;22.30;;;;;;4974023;28;20381;-70
2023/07/01 05:12:58;;;;;;;4.75;3.30;;;20.30;21.70;;;;;;4973923;28;20737;-71
2023/07/01 05:15:24;;;;;;;11.43;3.97;;;20.30;21.50;;;;;;4974028;28;20419;-71
2023/07/01 05:17:49;;;;;;;7.32;3.60;;;20.30;21.50;;;;;;4974063;28;20392;-72
2023/07/01 05:20:15;;;;;;;7.00;3.58;;;20.30;21.80;;;;;;4974138;28;20388;-72
2023/07/01 05:22:41;;;;;;;8.30;3.43;;;20.30;21.70;;;;;;4973801;28;20396;-72
2023/07/01 05:25:07;;;;;;;7.20;3.63;;;20.30;21.70;;;;;;4974564;28;20497;-73
2023/07/01 05:27:32;;;;;;;9.13;3.80;;;20.40;21.90;;;;;;4974018;28;20408;-72
2023/07/01 05:29:58;;;;;;;6.13;3.42;;;20.30;21.90;;;;;;4974166;28;20418;-70
2023/07/01 05:32:23;;;;;;;8.50;4.10;;;20.30;21.80;;;;;;4975498;28;20857;-72
2023/07/01 05:34:49;;;;;;;6.97;4.15;;;20.30;21.70;;;;;;4978915;28;20404;-72
2023/07/01 05:37:15;;;;;;;5.97;4.07;;;20.30;21.70;;;;;;4987635;28;20471;-73
2023/07/01 05:39:41;;;;;;;6.50;3.47;;;20.40;21.70;;;;;;4978759;28;20887;-72
2023/07/01 05:42:06;;;;;;;5.70;3.87;;;20.50;21.50;;;;;;4973811;28;20392;-72
2023/07/01 05:44:32;;;;;;;6.97;3.80;;;20.50;21.70;;;;;;4973725;28;20426;-70
2023/07/01 05:46:58;;;;;;;8.02;4.22;;;20.40;21.40;;;;;;4973324;28;20396;-72
2023/07/01 05:49:24;;;;;;;8.20;3.70;;;20.40;21.30;;;;;;4974587;28;20400;-71
2023/07/01 05:51:50;;;;;;;7.47;4.05;;;20.40;21.90;;;;;;4973205;28;20388;-71
2023/07/01 05:54:16;;;;;;;8.27;3.92;;;20.50;21.20;;;;;;4973860;28;20407;-70
2023/07/01 05:56:41;;;;;;;8.00;3.83;;;20.60;20.80;;;;;;4973721;28;20527;-71
2023/07/01 05:59:07;;;;;;;10.87;3.90;;;20.50;21.10;;;;;;4973268;28;20398;-70
2023/07/01 06:01:32;;;;;;;10.10;3.72;;;20.40;22.00;;;;;;4972947;28;20384;-71
2023/07/01 06:03:58;;;;;;;7.30;4.00;;;20.30;22.00;;;;;;4973008;28;20392;-71
2023/07/01 06:06:24;;;;;;;7.93;3.90;;;20.30;22.90;;;;;;4973197;28;20771;-72
2023/07/01 06:08:49;;;;;;;8.45;3.70;;;20.20;23.10;;;;;;4972782;28;20893;-71
2023/07/01 06:11:15;;;;;;;7.90;3.70;;;20.20;23.20;;;;;;4972586;28;20439;-71
2023/07/01 06:13:47;;;;;;;6.87;3.70;;;20.20;23.10;;;;;;4972744;28;20455;-70
2023/07/01 06:16:14;;;;;;;6.18;3.28;;;20.20;24.30;;;;;;4972712;28;20391;-71
2023/07/01 06:18:40;;;;;;;9.50;3.60;;;20.10;25.10;;;;;;4972821;28;20411;-73
2023/07/01 06:21:09;;;;;;;5.95;3.40;;;20.10;26.00;;;;;;4972294;28;20824;-70
2023/07/01 06:23:35;;;;;;;6.22;3.22;;;19.90;28.30;;;;;;4972209;28;20411;-71
2023/07/01 06:26:02;;;;;;;7.03;3.70;;;19.90;28.10;;;;;;4972357;28;20424;-71
2023/07/01 06:28:27;;;;;;;4.88;3.20;;;19.70;30.00;;;;;;4972501;28;20495;-72
2023/07/01 06:30:53;;;;;;;11.50;3.60;;;19.50;32.20;;;;;;4972092;28;20490;-72
2023/07/01 06:33:18;;;;;;;4.93;3.00;;;19.20;35.40;;;;;;4972210;28;20427;-72
2023/07/01 06:35:45;;;;;;;6.20;3.50;;;19.00;36.40;;;;;;4972421;28;20483;-72
2023/07/01 06:38:11;;;;;;;8.88;3.72;;;18.90;37.60;;;;;;4972564;28;20463;-71
2023/07/01 06:40:36;;;;;;;6.03;3.30;;;18.90;38.60;;;;;;4986808;28;20476;-71
2023/07/01 06:43:05;;;;;;;7.60;3.20;;;18.90;38.10;;;;;;4971906;28;20392;-73
2023/07/01 06:45:31;;;;;;;4.82;3.20;;;18.90;39.00;;;;;;4971799;28;20442;-71
2023/07/01 06:47:58;;;;;;;5.30;3.30;;;18.90;39.20;;;;;;4971591;28;20451;-71
2023/07/01 06:50:23;;;;;;;7.13;4.40;;;19.00;39.40;;;;;;4971927;28;20388;-71
2023/07/01 06:52:49;;;;;;;4.18;3.40;;;19.20;39.70;;;;;;4972297;28;21018;-72
2023/07/01 06:55:15;;;;;;;6.22;3.60;;;19.10;39.60;;;;;;4972003;28;20892;-72
2023/07/01 06:57:43;;;;;;;9.13;4.93;;;19.20;38.40;;;;;;4972120;28;20455;-72
2023/07/01 07:00:12;;;;;;;5.28;4.03;;;19.20;38.70;;;;;;4972605;28;20486;-70
2023/07/01 07:02:38;;;;;;;6.30;3.95;;;19.30;39.80;;;;;;4971908;28;20455;-70
2023/07/01 07:05:05;;;;;;;7.20;3.38;;;19.40;39.00;;;;;;4971988;28;20419;-71
2023/07/01 07:07:30;;;;;;;6.57;3.40;;;19.60;38.00;;;;;;4971714;28;20412;-71
2023/07/01 07:09:56;;;;;;;4.30;3.15;;;19.90;38.30;;;;;;4971852;28;20402;-72
2023/07/01 07:12:22;;;;;;;6.93;3.90;;;19.90;37.20;;;;;;4971416;28;20479;-72
2023/07/01 07:14:47;;;;;;;6.90;3.70;;;19.90;37.30;;;;;;4986960;28;20431;-72
2023/07/01 07:17:13;;;;;;;7.85;3.50;;;19.90;36.50;;;;;;4971473;28;20829;-73
2023/07/01 07:19:39;;;;;;;7.77;3.40;;;19.80;36.40;;;;;;4971082;28;20388;-75
2023/07/01 07:22:05;;;;;;;7.20;3.70;;;19.60;37.60;;;;;;4972677;28;20466;-77
2023/07/01 07:24:31;;;;;;;8.02;3.72;;;19.40;38.20;;;;;;4974631;28;20411;-78
2023/07/01 07:27:00;;;;;;;8.10;3.93;;;19.50;38.30;;;;;;4974922;28;20400;-79
2023/07/01 07:29:29;;;;;;;7.10;3.30;;;19.60;37.60;;;;;;4975628;28;20471;-77
2023/07/01 07:31:56;;;;;;;8.57;3.97;;;19.60;37.90;;;;;;4974206;28;20387;-78
2023/07/01 07:34:22;;;;;;;6.35;3.30;;;19.60;38.30;;;;;;4965318;28;20964;-77
2023/07/01 07:36:47;;;;;;;8.50;4.00;;;19.50;38.50;;;;;;4968723;28;20499;-77
2023/07/01 07:39:14;;;;;;;6.00;3.80;;;19.50;37.40;;;;;;4973553;28;20454;-77
2023/07/01 07:41:40;;;;;;;8.97;3.70;;;19.40;38.60;;;;;;4956831;28;20997;-77
2023/07/01 07:44:06;;;;;;;5.47;3.80;;;19.40;38.40;;;;;;4973006;28;20396;-78
2023/07/01 07:46:33;;;;;;;7.05;3.80;;;19.60;38.20;;;;;;4973221;28;20403;-74
2023/07/01 07:48:58;;;;;;;4.55;3.20;;;19.70;38.50;;;;;;4971964;28;20419;-74
2023/07/01 07:51:24;;;;;;;5.67;3.40;;;19.80;37.10;;;;;;4972797;28;20399;-74
2023/07/01 07:53:49;;;;;;;6.50;3.70;;;19.70;37.80;;;;;;4973303;28;20391;-74
2023/07/01 07:56:15;;;;;;;6.25;3.97;;;19.70;37.60;;;;;;4974239;28;20392;-73
2023/07/01 07:58:40;;;;;;;5.37;3.60;;;19.60;37.50;;;;;;4972410;28;20801;-76
2023/07/01 08:01:06;;;;;;;7.72;4.00;;;19.70;36.90;;;;;;4971109;28;20411;-74
2023/07/01 08:03:32;;;;;;;9.50;4.00;;;19.70;37.20;;;;;;4974080;28;20492;-75
2023/07/01 08:05:57;;;;;;;7.73;3.87;;;19.70;37.70;;;;;;4975544;28;20442;-75
2023/07/01 08:08:23;;;;;;;7.10;3.80;;;19.90;37.70;;;;;;4989393;28;20502;-75
2023/07/01 08:10:48;;;;;;;9.38;4.00;;;19.90;37.00;;;;;;4975161;28;20388;-75
2023/07/01 08:13:14;;;;;;;8.17;3.80;;;19.90;37.30;;;;;;4974762;28;20897;-74
2023/07/01 08:15:42;;;;;;;8.68;3.92;;;20.00;36.70;;;;;;4975093;28;20384;-74
2023/07/01 08:18:08;;;;;;;9.07;3.72;;;20.00;36.90;;;;;;4975482;28;20486;-75
2023/07/01 08:20:34;;;;;;;6.55;3.30;;;20.00;37.10;;;;;;4975403;28;20419;-73
2023/07/01 08:23:00;;;;;;;7.40;3.90;;;20.20;37.10;;;;;;4974669;28;20906;-74
2023/07/01 08:25:25;;;;;;;9.85;3.40;;;20.20;37.40;;;;;;4976023;28;20407;-75
2023/07/01 08:27:51;;;;;;;8.47;3.77;;;20.20;36.80;;;;;;4973559;28;20828;-74
2023/07/01 08:30:17;;;;;;;5.07;3.60;;;20.20;38.00;;;;;;4989238;28;20799;-74
2023/07/01 08:32:42;;;;;;;5.25;3.20;;;20.20;38.80;;;;;;4955060;28;20412;-75
2023/07/01 08:35:08;;;;;;;6.57;3.47;;;20.20;37.80;;;;;;4972917;28;20404;-73
2023/07/01 08:37:34;;;;;;;5.05;2.67;;;20.20;38.70;;;;;;4972786;28;20407;-75
2023/07/01 08:40:00;;;;;;;6.03;3.30;;;20.10;38.00;;;;;;4973126;28;20412;-75
2023/07/01 08:42:34;;;;;;;5.88;3.50;;;19.90;38.30;;;;;;4984545;28;20416;-74
2023/07/01 08:45:00;;;;;;;3.53;3.10;;;19.90;38.90;;;;;;4975127;28;20722;-75
2023/07/01 08:47:27;;;;;;;5.03;3.30;;;19.80;39.20;;;;;;4974925;28;20495;-75
2023/07/01 08:49:55;;;;;;;4.50;2.90;;;19.70;40.30;;;;;;4968041;28;20402;-74
2023/07/01 08:52:22;;;;;;;8.48;3.58;;;19.80;40.70;;;;;;4952160;28;20509;-74
2023/07/01 08:54:48;;;;;;;5.07;3.33;;;19.70;41.20;;;;;;4970806;28;20843;-74
2023/07/01 08:57:15;;;;;;;4.20;2.90;;;19.70;42.50;;;;;;4993871;28;20803;-74
2023/07/01 08:59:42;;;;;;;6.65;3.40;;;19.70;42.90;;;;;;4977042;28;20396;-75
2023/07/01 09:02:08;;;;;;;7.15;3.00;;;19.90;43.00;;;;;;4973717;28;20408;-75
2023/07/01 09:04:37;;;;;;;5.82;3.35;;;19.90;44.80;;;;;;4974233;28;20392;-75
2023/07/01 09:07:03;;;;;;;4.83;3.17;;;19.90;44.30;;;;;;4974543;28;20746;-74
2023/07/01 09:09:29;;;;;;;6.60;3.10;;;19.60;45.60;;;;;;4971702;28;20420;-77
2023/07/01 09:11:54;;;;;;;5.33;3.30;;;19.70;47.20;;;;;;4978810;28;20410;-75
2023/07/01 09:14:20;;;;;;;5.43;3.00;;;19.80;47.20;;;;;;4984839;28;20402;-77
2023/07/01 09:16:46;;;;;;;5.60;3.57;;;19.90;47.00;;;;;;4974290;28;20462;-75
2023/07/01 09:19:16;;;;;;;8.15;3.60;;;19.90;47.90;;;;;;4973072;28;20392;-75
2023/07/01 09:21:42;;;;;;;5.43;3.40;;;19.80;48.90;;;;;;4972246;28;20550;-74
2023/07/01 09:24:10;;;;;;;7.85;4.40;;;19.80;49.30;;;;;;5011776;22;20438;-75
2023/07/01 09:26:36;;;;;;;6.90;3.40;;;19.70;50.60;;;;;;5030547;28;20379;-73
2023/07/01 09:29:09;;;;;;;8.43;3.72;;;19.70;50.10;;;;;;5045993;28;20493;-74
2023/07/01 09:31:48;;;;;;;8.00;3.70;;;19.70;50.70;;;;;;5030740;28;20395;-74
2023/07/01 09:34:16;;;;;;;7.15;3.70;;;19.70;50.40;;;;;;5030806;28;20865;-74
2023/07/01 09:36:42;;;;;;;6.63;3.70;;;19.70;50.70;;;;;;5033132;28;20414;-74
2023/07/01 09:39:08;;;;;;;6.82;4.05;;;19.60;51.50;;;;;;5033688;28;20387;-73
2023/07/01 09:41:34;;;;;;;8.88;5.00;;;19.60;51.30;;;;;;5032163;28;20870;-74
2023/07/01 09:44:00;;;;;;;4.97;3.78;;;19.40;52.10;;;;;;5032324;28;20398;-73
2023/07/01 09:46:42;;;;;;;6.93;4.40;;;19.40;54.20;;;;;;5032480;28;20387;-73
2023/07/01 09:49:08;;;;;;;6.80;4.53;;;19.30;55.30;;;;;;5032324;28;20398;-75
2023/07/01 09:51:48;;;;;;;9.52;5.00;;;19.30;56.00;;;;;;5032255;28;20411;-73
2023/07/01 09:54:29;;;;;;;6.45;4.57;;;19.40;57.10;;;;;;5031442;28;20502;-73
2023/07/01 09:56:56;;;;;;;5.60;4.20;;;19.50;56.30;;;;;;5033465;28;20851;-73
2023/07/01 09:59:22;;;;;;;6.65;4.32;;;19.60;57.40;;;;;;5034421;28;20395;-74
2023/07/01 10:01:50;;;;;;;9.80;4.60;;;19.70;56.50;;;;;;5034109;28;20383;-74
2023/07/01 10:04:19;;;;;;;6.83;4.37;;;19.90;55.40;;;;;;5033624;28;20387;-75
2023/07/01 10:06:45;;;;;;;4.60;3.75;;;20.00;54.40;;;;;;5032910;28;20415;-74
2023/07/01 10:09:10;;;;;;;5.00;3.80;;;20.00;53.70;;;;;;5032124;28;20430;-74
2023/07/01 10:11:37;;;;;;;5.38;4.15;;;20.00;53.30;;;;;;5031769;28;20796;-73
2023/07/01 10:14:05;;;;;;;7.97;4.00;;;20.00;54.40;;;;;;5031479;28;20872;-73
2023/07/01 10:16:31;;;;;;;7.35;4.53;;;19.90;55.60;;;;;;5031732;28;20391;-73
2023/07/01 10:18:57;;;;;;;6.40;4.80;;;19.80;56.50;;;;;;5031852;28;20718;-73
2023/07/01 10:21:32;;;;;;;4.77;3.90;;;19.70;57.40;;;;;;5031862;28;20389;-73
2023/07/01 10:24:01;;;;;;;4.88;3.20;;;19.80;58.20;;;;;;5031229;28;20403;-72
2023/07/01 10:26:34;;;;;;;5.50;3.63;;;19.90;56.50;;;;;;5031288;28;20889;-73
2023/07/01 10:29:18;;;;;;;5.78;3.78;;;19.90;56.20;;;;;;5031234;28;20410;-74
2023/07/01 10:32:10;;;;;;;4.40;4.00;;;20.10;56.80;;;;;;5030877;28;20478;-73
2023/07/01 10:34:53;;;;;;;5.82;4.18;;;20.10;55.30;;;;;;5030819;28;20384;-73
2023/07/01 10:37:20;;;;;;;5.90;4.40;;;20.20;56.70;;;;;;5031022;28;20394;-73
2023/07/01 10:39:46;;;;;;;7.70;3.30;;;20.30;55.90;;;;;;5031135;28;20391;-72
2023/07/01 10:42:34;;;;;;;4.03;3.40;;;20.40;54.30;;;;;;5031329;28;20402;-72
2023/07/01 10:45:12;;;;;;;13.63;6.83;;;20.50;53.10;;;;;;5031290;28;20466;-74
2023/07/01 10:47:49;;;;;;;14.45;9.07;;;20.40;53.00;;;;;;5031200;28;20470;-74
2023/07/01 10:50:16;;;;;;;7.50;4.53;;;20.30;54.10;;;;;;5031057;28;20386;-73
2023/07/01 10:52:57;;;;;;;5.50;3.35;;;20.30;55.00;;;;;;5031256;28;20387;-73
2023/07/01 10:55:49;;;;;;;4.15;3.53;;;20.30;54.80;;;;;;5031396;28;20382;-74
2023/07/01 10:58:26;;;;;;;5.00;4.00;;;20.20;57.00;;;;;;5031131;28;20391;-74
2023/07/01 11:00:58;;;;;;;5.63;4.60;;;20.30;55.60;;;;;;5031310;28;20398;-74
2023/07/01 11:03:32;;;;;;;7.43;5.22;;;20.30;54.60;;;;;;5031179;28;20428;-74
2023/07/01 11:06:05;;;;;;;11.00;7.13;;;20.30;55.20;;;;;;5031462;28;20467;-73
2023/07/01 11:08:32;;;;;;;4.95;3.70;;;20.20;56.20;;;;;;5033903;28;20409;-73
2023/07/01 11:10:58;;;;;;;6.10;3.10;;;20.00;57.70;;;;;;5031265;28;20460;-73
2023/07/01 11:13:25;;;;;;;5.43;3.03;;;19.80;59.10;;;;;;5030727;28;20658;-73
2023/07/01 11:16:08;;;;;;;4.88;3.13;;;19.80;60.50;;;;;;5031170;28;20467;-73
2023/07/01 11:18:40;;;;;;;4.20;2.50;;;20.00;59.90;;;;;;5030639;28;20402;-73
2023/07/01 11:21:05;;;;;;;4.70;3.30;;;20.00;60.10;;;;;;5030239;28;20399;-73
2023/07/01 11:23:31;;;;;;;3.10;2.70;;;19.90;60.30;;;;;;5030627;28;21084;-73
2023/07/01 11:25:56;;;;;;;4.30;2.60;;;19.90;61.90;;;;;;5030826;28;20413;-73
2023/07/01 11:28:35;;;;;;;3.50;2.10;;;19.80;61.80;;;;;;5030248;28;20733;-72
2023/07/01 11:31:22;;;;;;;2.07;1.87;;;19.90;62.80;;;;;;5031051;28;20422;-73
2023/07/01 11:33:50;;;;;;;5.27;2.40;;;20.00;61.30;;;;;;5030475;28;20883;-74
2023/07/01 11:36:19;;;;;;;2.22;1.85;;;20.20;60.80;;;;;;5029742;28;20394;-74
2023/07/01 11:38:49;;;;;;;2.55;2.35;;;20.40;56.90;;;;;;5030747;28;20414;-72
2023/07/01 11:41:20;;;;;;;4.28;2.30;;;20.40;57.30;;;;;;5030295;28;20456;-72
2023/07/01 11:43:47;;;;;;;4.65;1.83;;;20.40;56.90;;;;;;5030790;28;20397;-73
2023/07/01 11:46:13;;;;;;;4.90;2.30;;;20.50;57.00;;;;;;5030413;28;20387;-73
2023/07/01 11:48:40;;;;;;;2.00;1.77;;;20.50;57.80;;;;;;5030165;28;20403;-75
2023/07/01 11:51:06;;;;;;;6.00;2.30;;;20.50;56.70;;;;;;5030237;28;20785;-74
2023/07/01 11:53:32;;;;;;;3.78;1.95;;;20.50;57.00;;;;;;5030228;28;20454;-73
2023/07/01 11:55:58;;;;;;;5.47;1.92;;;20.50;57.60;;;;;;5030447;28;20379;-73
2023/07/01 11:58:35;;;;;;;2.80;2.20;;;20.30;56.30;;;;;;5030513;28;20395;-73
2023/07/01 12:01:00;;;;;;;3.15;2.10;;;20.20;57.60;;;;;;5034625;28;20393;-74
2023/07/01 12:03:33;;;;;;;2.70;1.50;;;20.20;58.90;;;;;;5030224;28;20394;-75
2023/07/01 12:05:59;;;;;;;2.38;1.70;;;20.10;58.90;;;;;;5035228;28;20397;-75
2023/07/01 12:08:24;;;;;;;2.63;1.70;;;20.10;58.70;;;;;;5032639;28;20419;-75
2023/07/01 12:10:50;;;;;;;3.10;2.00;;;20.10;59.20;;;;;;5032597;28;20401;-78
2023/07/01 12:13:29;;;;;;;6.32;4.30;;;20.10;58.70;;;;;;5048562;28;20459;-77
2023/07/01 12:15:56;;;;;;;2.97;2.47;;;20.20;57.80;;;;;;5047368;28;20393;-76
2023/07/01 12:18:26;;;;;;;3.40;2.17;;;20.20;56.30;;;;;;5038784;28;20461;-77
2023/07/01 12:20:52;;;;;;;2.40;2.00;;;20.40;55.30;;;;;;5029968;28;20379;-77
2023/07/01 12:23:17;;;;;;;2.47;1.90;;;20.60;52.90;;;;;;5029900;28;20523;-77
2023/07/01 12:25:43;;;;;;;3.10;1.85;;;20.70;51.80;;;;;;5030186;28;20473;-77
2023/07/01 12:28:08;;;;;;;4.57;2.00;;;20.90;49.80;;;;;;5030507;28;20761;-77
2023/07/01 12:30:37;;;;;;;4.60;2.38;;;20.90;50.20;;;;;;5012808;28;20825;-77
2023/07/01 12:33:03;;;;;;;2.33;1.80;;;20.90;49.70;;;;;;5029951;28;20384;-77
2023/07/01 12:35:29;;;;;;;5.38;1.90;;;21.00;49.00;;;;;;5008859;28;20484;-78
2023/07/01 12:37:57;;;;;;;3.83;2.00;;;21.20;47.10;;;;;;5009524;28;20476;-77
2023/07/01 12:40:26;;;;;;;5.40;2.00;;;21.30;47.30;;;;;;5004043;28;20804;-75
2023/07/01 12:42:52;;;;;;;3.20;1.90;;;21.50;46.10;;;;;;5012733;28;20398;-78
2023/07/01 12:45:18;;;;;;;2.30;2.10;;;21.70;45.80;;;;;;5011405;28;20392;-78
2023/07/01 12:47:44;;;;;;;4.00;2.50;;;21.80;43.20;;;;;;5016688;28;20431;-76